sensor_id;sensor_type;location;lat;lon;timestamp;temperature;humidity
42803;DHT22;28447;48.682;9.022;2023-04-08T04:04:23;6.60;99.90
42803;DHT22;28447;48.682;9.022;2023-04-08T04:06:49;6.70;99.90
42803;DHT22;28447;48.682;9.022;2023-04-08T04:09:14;6.70;99.90
42803;DHT22;28447;48.682;9.022;2023-04-08T04:11:41;6.70;99.90
42803;DHT22;28447;48.682;9.022;2023-04-08T04:14:06;6.70;99.90
42803;DHT22;28447;48.682;9.022;2023-04-08T04:16:32;6.80;99.90
42803;DHT22;28447;48.682;9.022;2023-04-08T04:18:57;6.80;99.90
42803;DHT22;28447;48.682;9.022;2023-04-08T04:21:23;6.70;99.90
42803;DHT22;28447;48.682;9.022;2023-04-08T04:23:49;6.70;99.90
42803;DHT22;28447;48.682;9.022;2023-04-08T04:26:14;6.60;99.90
42803;DHT22;28447;48.682;9.022;2023-04-08T04:28:40;6.70;99.90
42803;DHT22;28447;48.682;9.022;2023-04-08T04:31:05;6.60;99.90
42803;DHT22;28447;48.682;9.022;2023-04-08T04:33:31;6.60;99.90
42803;DHT22;28447;48.682;9.022;2023-04-08T04:35:57;6.70;99.90
42803;DHT22;28447;48.682;9.022;2023-04-08T04:38:22;6.60;99.90
42803;DHT22;28447;48.682;9.022;2023-04-08T04:40:48;6.60;99.90
42803;DHT22;28447;48.682;9.022;2023-04-08T04:43:13;6.60;99.90
42803;DHT22;28447;48.682;9.022;2023-04-08T04:45:39;6.60;99.90
42803;DHT22;28447;48.682;9.022;2023-04-08T04:48:05;6.60;99.90
42803;DHT22;28447;48.682;9.022;2023-04-08T04:50:31;6.50;99.90
42803;DHT22;28447;48.682;9.022;2023-04-08T04:52:56;6.50;99.90
42803;DHT22;28447;48.682;9.022;2023-04-08T04:55:22;6.50;99.90
42803;DHT22;28447;48.682;9.022;2023-04-08T04:57:48;6.50;99.90
42803;DHT22;28447;48.682;9.022;2023-04-08T05:00:14;6.60;99.90
42803;DHT22;28447;48.682;9.022;2023-04-08T05:02:41;6.50;99.90
42803;DHT22;28447;48.682;9.022;2023-04-08T05:05:07;6.50;99.90
42803;DHT22;28447;48.682;9.022;2023-04-08T05:07:36;6.50;99.90
42803;DHT22;28447;48.682;9.022;2023-04-08T05:10:02;6.50;99.90
42803;DHT22;28447;48.682;9.022;2023-04-08T05:12:28;6.60;99.90
42803;DHT22;28447;48.682;9.022;2023-04-08T05:14:54;6.60;99.90
42803;DHT22;28447;48.682;9.022;2023-04-08T05:17:20;6.70;99.90
42803;DHT22;28447;48.682;9.022;2023-04-08T05:19:45;6.70;99.90
42803;DHT22;28447;48.682;9.022;2023-04-08T05:22:11;6.70;99.90
42803;DHT22;28447;48.682;9.022;2023-04-08T05:24:36;6.70;99.90
42803;DHT22;28447;48.682;9.022;2023-04-08T05:27:02;6.70;99.90
42803;DHT22;28447;48.682;9.022;2023-04-08T05:29:28;6.70;99.90
42803;DHT22;28447;48.682;9.022;2023-04-08T05:31:53;6.70;99.90
42803;DHT22;28447;48.682;9.022;2023-04-08T05:34:20;6.70;99.90
42803;DHT22;28447;48.682;9.022;2023-04-08T05:36:48;6.80;99.90
42803;DHT22;28447;48.682;9.022;2023-04-08T05:39:18;6.80;99.90
42803;DHT22;28447;48.682;9.022;2023-04-08T05:41:44;6.70;99.90
42803;DHT22;28447;48.682;9.022;2023-04-08T05:44:10;6.80;99.90
42803;DHT22;28447;48.682;9.022;2023-04-08T05:46:36;6.80;99.90
42803;DHT22;28447;48.682;9.022;2023-04-08T05:49:02;6.90;99.90
42803;DHT22;28447;48.682;9.022;2023-04-08T05:51:28;6.80;99.90
42803;DHT22;28447;48.682;9.022;2023-04-08T05:53:53;6.80;99.90
42803;DHT22;28447;48.682;9.022;2023-04-08T05:56:19;6.90;99.90
42803;DHT22;28447;48.682;9.022;2023-04-08T05:58:45;6.90;99.90
42803;DHT22;28447;48.682;9.022;2023-04-08T06:01:11;6.90;99.90
42803;DHT22;28447;48.682;9.022;2023-04-08T06:03:37;7.10;99.90
42803;DHT22;28447;48.682;9.022;2023-04-08T06:06:02;7.20;99.90
42803;DHT22;28447;48.682;9.022;2023-04-08T06:08:28;7.30;99.90
42803;DHT22;28447;48.682;9.022;2023-04-08T06:10:54;7.30;99.90
42803;DHT22;28447;48.682;9.022;2023-04-08T06:13:20;7.40;99.90
42803;DHT22;28447;48.682;9.022;2023-04-08T06:15:46;7.40;99.90
42803;DHT22;28447;48.682;9.022;2023-04-08T06:18:14;7.30;99.90
42803;DHT22;28447;48.682;9.022;2023-04-08T06:20:43;7.30;99.90
42803;DHT22;28447;48.682;9.022;2023-04-08T06:23:09;7.50;99.90
42803;DHT22;28447;48.682;9.022;2023-04-08T06:25:34;7.50;99.90
42803;DHT22;28447;48.682;9.022;2023-04-08T06:28:00;7.50;99.90
42803;DHT22;28447;48.682;9.022;2023-04-08T06:30:25;7.60;99.90
42803;DHT22;28447;48.682;9.022;2023-04-08T06:32:51;7.70;99.90
42803;DHT22;28447;48.682;9.022;2023-04-08T06:35:17;7.70;99.90
42803;DHT22;28447;48.682;9.022;2023-04-08T06:37:42;7.70;99.90
42803;DHT22;28447;48.682;9.022;2023-04-08T06:40:08;7.80;99.90
42803;DHT22;28447;48.682;9.022;2023-04-08T06:42:34;7.70;99.90
42803;DHT22;28447;48.682;9.022;2023-04-08T06:45:03;7.70;99.90
42803;DHT22;28447;48.682;9.022;2023-04-08T06:47:28;7.60;99.90
42803;DHT22;28447;48.682;9.022;2023-04-08T06:49:54;7.40;99.90
42803;DHT22;28447;48.682;9.022;2023-04-08T06:52:20;7.40;99.90
42803;DHT22;28447;48.682;9.022;2023-04-08T06:54:45;7.50;99.90
42803;DHT22;28447;48.682;9.022;2023-04-08T06:57:11;7.60;99.90
42803;DHT22;28447;48.682;9.022;2023-04-08T06:59:37;7.90;99.90
42803;DHT22;28447;48.682;9.022;2023-04-08T07:02:02;7.80;99.90
42803;DHT22;28447;48.682;9.022;2023-04-08T07:04:28;7.90;99.90
42803;DHT22;28447;48.682;9.022;2023-04-08T07:06:54;7.80;99.90
42803;DHT22;28447;48.682;9.022;2023-04-08T07:09:19;7.90;99.90
42803;DHT22;28447;48.682;9.022;2023-04-08T07:11:45;8.00;99.90
42803;DHT22;28447;48.682;9.022;2023-04-08T07:14:11;7.90;99.90
42803;DHT22;28447;48.682;9.022;2023-04-08T07:16:36;7.80;99.90
42803;DHT22;28447;48.682;9.022;2023-04-08T07:19:02;8.00;99.90
42803;DHT22;28447;48.682;9.022;2023-04-08T07:21:28;8.10;99.90
42803;DHT22;28447;48.682;9.022;2023-04-08T07:23:55;8.20;99.90
42803;DHT22;28447;48.682;9.022;2023-04-08T07:26:21;8.20;99.90
42803;DHT22;28447;48.682;9.022;2023-04-08T07:28:46;8.30;99.90
42803;DHT22;28447;48.682;9.022;2023-04-08T07:31:14;8.20;99.90
42803;DHT22;28447;48.682;9.022;2023-04-08T07:33:40;8.20;99.90
42803;DHT22;28447;48.682;9.022;2023-04-08T07:36:07;8.00;99.90
42803;DHT22;28447;48.682;9.022;2023-04-08T07:38:33;7.90;99.90
42803;DHT22;28447;48.682;9.022;2023-04-08T07:40:58;7.90;99.90
42803;DHT22;28447;48.682;9.022;2023-04-08T07:43:24;8.00;99.90
42803;DHT22;28447;48.682;9.022;2023-04-08T07:45:50;7.80;99.90
42803;DHT22;28447;48.682;9.022;2023-04-08T07:48:16;7.90;99.90
42803;DHT22;28447;48.682;9.022;2023-04-08T07:50:42;8.10;99.90
42803;DHT22;28447;48.682;9.022;2023-04-08T07:53:07;8.20;99.90
42803;DHT22;28447;48.682;9.022;2023-04-08T07:55:34;8.10;99.90
42803;DHT22;28447;48.682;9.022;2023-04-08T07:58:00;8.40;99.90
42803;DHT22;28447;48.682;9.022;2023-04-08T08:00:26;8.30;99.90
42803;DHT22;28447;48.682;9.022;2023-04-08T08:02:52;8.40;99.90
42803;DHT22;28447;48.682;9.022;2023-04-08T08:05:17;8.50;99.90
42803;DHT22;28447;48.682;9.022;2023-04-08T08:07:43;8.70;99.90
42803;DHT22;28447;48.682;9.022;2023-04-08T08:10:09;8.70;99.90
42803;DHT22;28447;48.682;9.022;2023-04-08T08:12:35;8.80;99.90
42803;DHT22;28447;48.682;9.022;2023-04-08T08:15:02;8.70;99.90
42803;DHT22;28447;48.682;9.022;2023-04-08T08:17:27;8.60;99.90
42803;DHT22;28447;48.682;9.022;2023-04-08T08:19:55;8.50;99.90
42803;DHT22;28447;48.682;9.022;2023-04-08T08:22:21;8.60;99.90
42803;DHT22;28447;48.682;9.022;2023-04-08T08:24:47;8.90;99.90
42803;DHT22;28447;48.682;9.022;2023-04-08T08:27:12;8.70;99.90
42803;DHT22;28447;48.682;9.022;2023-04-08T08:29:38;9.00;99.90
42803;DHT22;28447;48.682;9.022;2023-04-08T08:32:04;9.20;99.90
42803;DHT22;28447;48.682;9.022;2023-04-08T08:34:29;9.20;99.90
42803;DHT22;28447;48.682;9.022;2023-04-08T08:36:55;9.10;99.90
42803;DHT22;28447;48.682;9.022;2023-04-08T08:39:21;9.20;99.90
42803;DHT22;28447;48.682;9.022;2023-04-08T08:41:47;9.50;99.90
42803;DHT22;28447;48.682;9.022;2023-04-08T08:44:13;9.60;99.90
42803;DHT22;28447;48.682;9.022;2023-04-08T08:46:46;9.50;99.90
42803;DHT22;28447;48.682;9.022;2023-04-08T08:49:13;9.50;99.90
42803;DHT22;28447;48.682;9.022;2023-04-08T08:51:39;9.60;99.90
42803;DHT22;28447;48.682;9.022;2023-04-08T08:54:06;9.90;99.90
42803;DHT22;28447;48.682;9.022;2023-04-08T08:56:32;10.00;99.90
42803;DHT22;28447;48.682;9.022;2023-04-08T08:58:59;9.80;99.90
42803;DHT22;28447;48.682;9.022;2023-04-08T09:01:38;9.80;99.90
42803;DHT22;28447;48.682;9.022;2023-04-08T09:04:10;10.00;99.90
42803;DHT22;28447;48.682;9.022;2023-04-08T09:06:37;10.10;99.90
42803;DHT22;28447;48.682;9.022;2023-04-08T09:09:03;10.10;99.90
42803;DHT22;28447;48.682;9.022;2023-04-08T09:11:35;10.40;99.90
42803;DHT22;28447;48.682;9.022;2023-04-08T09:14:02;10.50;99.90
42803;DHT22;28447;48.682;9.022;2023-04-08T09:16:29;10.60;99.90
42803;DHT22;28447;48.682;9.022;2023-04-08T09:19:07;10.40;99.90
42803;DHT22;28447;48.682;9.022;2023-04-08T09:21:33;10.90;99.90
42803;DHT22;28447;48.682;9.022;2023-04-08T09:23:59;10.70;99.90
42803;DHT22;28447;48.682;9.022;2023-04-08T09:26:25;11.10;99.90
42803;DHT22;28447;48.682;9.022;2023-04-08T09:29:05;11.60;99.90
42803;DHT22;28447;48.682;9.022;2023-04-08T09:31:36;11.60;99.90
42803;DHT22;28447;48.682;9.022;2023-04-08T09:34:10;11.80;99.90
42803;DHT22;28447;48.682;9.022;2023-04-08T09:36:37;12.00;99.90
42803;DHT22;28447;48.682;9.022;2023-04-08T09:39:02;12.40;99.90
42803;DHT22;28447;48.682;9.022;2023-04-08T09:41:33;12.00;99.90
42803;DHT22;28447;48.682;9.022;2023-04-08T09:43:59;11.90;99.90
42803;DHT22;28447;48.682;9.022;2023-04-08T09:47:09;11.50;99.90
42803;DHT22;28447;48.682;9.022;2023-04-08T09:49:49;11.10;99.90
42803;DHT22;28447;48.682;9.022;2023-04-08T09:52:23;11.40;99.90
42803;DHT22;28447;48.682;9.022;2023-04-08T09:54:58;11.40;99.90
42803;DHT22;28447;48.682;9.022;2023-04-08T09:58:31;11.90;99.90
42803;DHT22;28447;48.682;9.022;2023-04-08T10:00:42;12.00;99.90
42803;DHT22;28447;48.682;9.022;2023-04-08T10:05:52;12.50;99.90
42803;DHT22;28447;48.682;9.022;2023-04-08T10:08:17;12.20;99.90
42803;DHT22;28447;48.682;9.022;2023-04-08T10:10:44;11.80;99.90
42803;DHT22;28447;48.682;9.022;2023-04-08T10:13:11;11.60;99.90
42803;DHT22;28447;48.682;9.022;2023-04-08T10:15:37;12.60;99.90
42803;DHT22;28447;48.682;9.022;2023-04-08T10:22:59;12.80;99.90
42803;DHT22;28447;48.682;9.022;2023-04-08T10:30:45;12.80;99.90
42803;DHT22;28447;48.682;9.022;2023-04-08T10:38:29;13.20;99.90
42803;DHT22;28447;48.682;9.022;2023-04-08T10:40:55;13.10;99.90
42803;DHT22;28447;48.682;9.022;2023-04-08T10:43:21;13.00;99.90
42803;DHT22;28447;48.682;9.022;2023-04-08T10:45:46;14.20;99.90
42803;DHT22;28447;48.682;9.022;2023-04-08T10:48:17;13.20;99.90
42803;DHT22;28447;48.682;9.022;2023-04-08T10:50:54;12.20;99.90
42803;DHT22;28447;48.682;9.022;2023-04-08T10:55:53;12.60;99.90
42803;DHT22;28447;48.682;9.022;2023-04-08T10:58:19;12.60;99.90
42803;DHT22;28447;48.682;9.022;2023-04-08T11:00:45;12.30;99.90
42803;DHT22;28447;48.682;9.022;2023-04-08T11:03:11;11.80;99.90
42803;DHT22;28447;48.682;9.022;2023-04-08T11:05:37;12.10;99.90
42803;DHT22;28447;48.682;9.022;2023-04-08T11:08:04;11.70;99.90
42803;DHT22;28447;48.682;9.022;2023-04-08T11:10:30;11.40;99.90
42803;DHT22;28447;48.682;9.022;2023-04-08T11:13:00;11.20;99.90
42803;DHT22;28447;48.682;9.022;2023-04-08T11:15:29;11.30;99.90
42803;DHT22;28447;48.682;9.022;2023-04-08T11:17:55;11.20;99.90
42803;DHT22;28447;48.682;9.022;2023-04-08T11:20:21;11.50;99.90
42803;DHT22;28447;48.682;9.022;2023-04-08T11:22:47;11.60;99.90
42803;DHT22;28447;48.682;9.022;2023-04-08T11:25:13;11.30;99.90
42803;DHT22;28447;48.682;9.022;2023-04-08T11:27:39;11.30;99.90
42803;DHT22;28447;48.682;9.022;2023-04-08T11:30:06;11.20;99.90
42803;DHT22;28447;48.682;9.022;2023-04-08T11:32:34;11.10;99.90
42803;DHT22;28447;48.682;9.022;2023-04-08T11:35:01;10.80;99.90
42803;DHT22;28447;48.682;9.022;2023-04-08T11:37:41;10.60;99.90
42803;DHT22;28447;48.682;9.022;2023-04-08T11:40:08;10.50;99.90
42803;DHT22;28447;48.682;9.022;2023-04-08T11:42:34;10.50;99.90
42803;DHT22;28447;48.682;9.022;2023-04-08T11:45:00;10.50;99.90
42803;DHT22;28447;48.682;9.022;2023-04-08T11:47:32;10.50;99.90
42803;DHT22;28447;48.682;9.022;2023-04-08T11:49:58;10.50;99.90
42803;DHT22;28447;48.682;9.022;2023-04-08T11:52:47;10.50;99.90
42803;DHT22;28447;48.682;9.022;2023-04-08T11:57:49;10.70;99.90
42803;DHT22;28447;48.682;9.022;2023-04-08T12:00:15;10.70;99.90
42803;DHT22;28447;48.682;9.022;2023-04-08T12:02:41;10.70;99.90
42803;DHT22;28447;48.682;9.022;2023-04-08T12:05:07;10.70;99.90
42803;DHT22;28447;48.682;9.022;2023-04-08T12:07:32;10.60;99.90
42803;DHT22;28447;48.682;9.022;2023-04-08T12:09:58;10.70;99.90
42803;DHT22;28447;48.682;9.022;2023-04-08T12:12:24;10.60;99.90
42803;DHT22;28447;48.682;9.022;2023-04-08T12:14:49;10.80;99.90
42803;DHT22;28447;48.682;9.022;2023-04-08T12:17:15;10.50;99.90
42803;DHT22;28447;48.682;9.022;2023-04-08T12:19:41;10.20;99.90
42803;DHT22;28447;48.682;9.022;2023-04-08T12:22:06;10.40;99.90
42803;DHT22;28447;48.682;9.022;2023-04-08T12:24:32;10.60;99.90
42803;DHT22;28447;48.682;9.022;2023-04-08T12:26:58;10.70;99.90
42803;DHT22;28447;48.682;9.022;2023-04-08T12:29:23;10.90;99.90
42803;DHT22;28447;48.682;9.022;2023-04-08T12:31:49;10.90;99.90
42803;DHT22;28447;48.682;9.022;2023-04-08T12:34:14;10.80;99.90
42803;DHT22;28447;48.682;9.022;2023-04-08T12:36:41;10.90;99.90
42803;DHT22;28447;48.682;9.022;2023-04-08T12:39:07;11.00;99.90
42803;DHT22;28447;48.682;9.022;2023-04-08T12:41:33;10.70;99.90
42803;DHT22;28447;48.682;9.022;2023-04-08T12:43:58;10.80;99.90
42803;DHT22;28447;48.682;9.022;2023-04-08T12:46:25;11.00;99.90
42803;DHT22;28447;48.682;9.022;2023-04-08T12:48:51;10.60;99.90
42803;DHT22;28447;48.682;9.022;2023-04-08T12:51:16;10.50;99.90
42803;DHT22;28447;48.682;9.022;2023-04-08T12:53:42;10.10;99.90
42803;DHT22;28447;48.682;9.022;2023-04-08T12:56:08;10.00;99.90
42803;DHT22;28447;48.682;9.022;2023-04-08T12:58:34;10.10;99.90
42803;DHT22;28447;48.682;9.022;2023-04-08T13:01:00;9.90;99.90
42803;DHT22;28447;48.682;9.022;2023-04-08T13:03:26;9.80;99.90
42803;DHT22;28447;48.682;9.022;2023-04-08T13:05:54;9.90;99.90
42803;DHT22;28447;48.682;9.022;2023-04-08T13:08:21;9.90;99.90
42803;DHT22;28447;48.682;9.022;2023-04-08T13:10:47;9.90;99.90
42803;DHT22;28447;48.682;9.022;2023-04-08T13:13:13;10.10;99.90
42803;DHT22;28447;48.682;9.022;2023-04-08T13:15:39;9.90;99.90
42803;DHT22;28447;48.682;9.022;2023-04-08T13:18:05;10.10;99.90
42803;DHT22;28447;48.682;9.022;2023-04-08T13:20:31;10.10;99.90
42803;DHT22;28447;48.682;9.022;2023-04-08T13:22:58;10.20;99.90
42803;DHT22;28447;48.682;9.022;2023-04-08T13:25:25;10.30;99.90
42803;DHT22;28447;48.682;9.022;2023-04-08T13:27:50;10.50;99.90
42803;DHT22;28447;48.682;9.022;2023-04-08T13:30:16;10.60;99.90
42803;DHT22;28447;48.682;9.022;2023-04-08T13:32:42;10.70;99.90
42803;DHT22;28447;48.682;9.022;2023-04-08T13:35:07;10.40;99.90
42803;DHT22;28447;48.682;9.022;2023-04-08T13:37:33;10.30;99.90
42803;DHT22;28447;48.682;9.022;2023-04-08T13:39:59;10.40;99.90
42803;DHT22;28447;48.682;9.022;2023-04-08T13:42:24;10.30;99.90
42803;DHT22;28447;48.682;9.022;2023-04-08T13:44:50;10.30;99.90
42803;DHT22;28447;48.682;9.022;2023-04-08T13:47:16;10.50;99.90
42803;DHT22;28447;48.682;9.022;2023-04-08T13:49:42;10.60;99.90
42803;DHT22;28447;48.682;9.022;2023-04-08T13:52:08;10.80;99.90
42803;DHT22;28447;48.682;9.022;2023-04-08T13:54:34;10.80;99.90
42803;DHT22;28447;48.682;9.022;2023-04-08T13:57:00;10.70;99.90
42803;DHT22;28447;48.682;9.022;2023-04-08T13:59:26;10.80;99.90
42803;DHT22;28447;48.682;9.022;2023-04-08T14:01:51;10.60;99.90
42803;DHT22;28447;48.682;9.022;2023-04-08T14:04:22;10.50;99.90
42803;DHT22;28447;48.682;9.022;2023-04-08T14:06:48;10.70;99.90
42803;DHT22;28447;48.682;9.022;2023-04-08T14:09:17;10.70;99.90
42803;DHT22;28447;48.682;9.022;2023-04-08T14:11:43;10.80;99.90
42803;DHT22;28447;48.682;9.022;2023-04-08T14:14:09;10.80;99.90
42803;DHT22;28447;48.682;9.022;2023-04-08T14:16:34;10.80;99.90
42803;DHT22;28447;48.682;9.022;2023-04-08T14:19:01;10.60;99.90
42803;DHT22;28447;48.682;9.022;2023-04-08T14:21:27;10.80;99.90
42803;DHT22;28447;48.682;9.022;2023-04-08T14:23:53;10.70;99.90
42803;DHT22;28447;48.682;9.022;2023-04-08T14:26:19;10.80;99.90
42803;DHT22;28447;48.682;9.022;2023-04-08T14:28:45;10.70;99.90
42803;DHT22;28447;48.682;9.022;2023-04-08T14:31:12;10.60;99.90
42803;DHT22;28447;48.682;9.022;2023-04-08T14:33:38;10.50;99.90
42803;DHT22;28447;48.682;9.022;2023-04-08T14:36:04;11.00;99.90
42803;DHT22;28447;48.682;9.022;2023-04-08T14:38:30;11.10;99.90
42803;DHT22;28447;48.682;9.022;2023-04-08T14:40:56;11.00;99.90
42803;DHT22;28447;48.682;9.022;2023-04-08T14:43:22;11.10;99.90
42803;DHT22;28447;48.682;9.022;2023-04-08T14:45:50;11.00;99.90
42803;DHT22;28447;48.682;9.022;2023-04-08T14:48:17;10.90;99.90
42803;DHT22;28447;48.682;9.022;2023-04-08T14:50:43;11.00;99.90
42803;DHT22;28447;48.682;9.022;2023-04-08T14:53:09;10.80;99.90
42803;DHT22;28447;48.682;9.022;2023-04-08T14:55:35;10.50;99.90
42803;DHT22;28447;48.682;9.022;2023-04-08T14:58:01;10.40;99.90
42803;DHT22;28447;48.682;9.022;2023-04-08T15:00:27;10.50;99.90
42803;DHT22;28447;48.682;9.022;2023-04-08T15:02:55;10.70;99.90
42803;DHT22;28447;48.682;9.022;2023-04-08T15:05:21;10.90;99.90
42803;DHT22;28447;48.682;9.022;2023-04-08T15:07:47;11.10;99.90
42803;DHT22;28447;48.682;9.022;2023-04-08T15:10:13;11.20;99.90
42803;DHT22;28447;48.682;9.022;2023-04-08T15:12:39;11.30;99.90
42803;DHT22;28447;48.682;9.022;2023-04-08T15:15:05;11.30;99.90
42803;DHT22;28447;48.682;9.022;2023-04-08T15:17:31;11.60;99.90
42803;DHT22;28447;48.682;9.022;2023-04-08T15:19:58;11.10;99.90
42803;DHT22;28447;48.682;9.022;2023-04-08T15:22:23;10.70;99.90
42803;DHT22;28447;48.682;9.022;2023-04-08T15:24:49;10.90;99.90
42803;DHT22;28447;48.682;9.022;2023-04-08T15:27:15;10.60;99.90
42803;DHT22;28447;48.682;9.022;2023-04-08T15:29:40;10.50;99.90
42803;DHT22;28447;48.682;9.022;2023-04-08T15:32:06;10.30;99.90
42803;DHT22;28447;48.682;9.022;2023-04-08T15:34:32;10.50;99.90
42803;DHT22;28447;48.682;9.022;2023-04-08T15:36:58;10.60;99.90
42803;DHT22;28447;48.682;9.022;2023-04-08T15:39:24;10.30;99.90
42803;DHT22;28447;48.682;9.022;2023-04-08T15:41:49;10.20;99.90
42803;DHT22;28447;48.682;9.022;2023-04-08T15:44:15;10.20;99.90
42803;DHT22;28447;48.682;9.022;2023-04-08T15:46:41;10.30;99.90
42803;DHT22;28447;48.682;9.022;2023-04-08T15:49:07;10.00;99.90
42803;DHT22;28447;48.682;9.022;2023-04-08T15:51:33;10.10;99.90
42803;DHT22;28447;48.682;9.022;2023-04-08T15:53:58;10.20;99.90
42803;DHT22;28447;48.682;9.022;2023-04-08T15:56:25;10.20;99.90
42803;DHT22;28447;48.682;9.022;2023-04-08T15:58:52;10.20;99.90
42803;DHT22;28447;48.682;9.022;2023-04-08T16:01:18;10.10;99.90
42803;DHT22;28447;48.682;9.022;2023-04-08T16:03:45;10.10;99.90
42803;DHT22;28447;48.682;9.022;2023-04-08T16:06:11;10.10;99.90
42803;DHT22;28447;48.682;9.022;2023-04-08T16:08:36;10.00;99.90
42803;DHT22;28447;48.682;9.022;2023-04-08T16:11:04;10.00;99.90
42803;DHT22;28447;48.682;9.022;2023-04-08T16:13:31;10.00;99.90
42803;DHT22;28447;48.682;9.022;2023-04-08T16:16:00;10.00;99.90
42803;DHT22;28447;48.682;9.022;2023-04-08T16:18:26;10.10;99.90
42803;DHT22;28447;48.682;9.022;2023-04-08T16:20:53;10.20;99.90
42803;DHT22;28447;48.682;9.022;2023-04-08T16:23:18;10.00;99.90
42803;DHT22;28447;48.682;9.022;2023-04-08T16:25:44;9.80;99.90
42803;DHT22;28447;48.682;9.022;2023-04-08T16:28:10;9.90;99.90
42803;DHT22;28447;48.682;9.022;2023-04-08T16:30:36;9.80;99.90
42803;DHT22;28447;48.682;9.022;2023-04-08T16:33:03;9.70;99.90
42803;DHT22;28447;48.682;9.022;2023-04-08T16:35:29;9.80;99.90
42803;DHT22;28447;48.682;9.022;2023-04-08T16:37:54;9.90;99.90
42803;DHT22;28447;48.682;9.022;2023-04-08T16:40:20;10.10;99.90
42803;DHT22;28447;48.682;9.022;2023-04-08T16:42:46;10.00;99.90
42803;DHT22;28447;48.682;9.022;2023-04-08T16:45:12;9.90;99.90
42803;DHT22;28447;48.682;9.022;2023-04-08T16:47:38;9.70;99.90
42803;DHT22;28447;48.682;9.022;2023-04-08T16:50:07;9.60;99.90
42803;DHT22;28447;48.682;9.022;2023-04-08T16:52:32;9.60;99.90
42803;DHT22;28447;48.682;9.022;2023-04-08T16:54:58;9.60;99.90
42803;DHT22;28447;48.682;9.022;2023-04-08T16:57:25;9.70;99.90
42803;DHT22;28447;48.682;9.022;2023-04-08T16:59:51;9.90;99.90
42803;DHT22;28447;48.682;9.022;2023-04-08T17:02:16;9.80;99.90
42803;DHT22;28447;48.682;9.022;2023-04-08T17:04:42;9.60;99.90
42803;DHT22;28447;48.682;9.022;2023-04-08T17:07:08;9.70;99.90
42803;DHT22;28447;48.682;9.022;2023-04-08T17:09:34;9.60;99.90
42803;DHT22;28447;48.682;9.022;2023-04-08T17:12:00;9.50;99.90
42803;DHT22;28447;48.682;9.022;2023-04-08T17:14:27;9.50;99.90
42803;DHT22;28447;48.682;9.022;2023-04-08T17:16:52;9.40;99.90
42803;DHT22;28447;48.682;9.022;2023-04-08T17:19:18;9.30;99.90
42803;DHT22;28447;48.682;9.022;2023-04-08T17:21:44;9.40;99.90
42803;DHT22;28447;48.682;9.022;2023-04-08T17:24:10;9.30;99.90
42803;DHT22;28447;48.682;9.022;2023-04-08T17:26:36;9.40;99.90
42803;DHT22;28447;48.682;9.022;2023-04-08T17:29:02;9.40;99.90
42803;DHT22;28447;48.682;9.022;2023-04-08T17:31:28;9.30;99.90
42803;DHT22;28447;48.682;9.022;2023-04-08T17:33:53;9.40;99.90
42803;DHT22;28447;48.682;9.022;2023-04-08T17:36:19;9.30;99.90
42803;DHT22;28447;48.682;9.022;2023-04-08T17:38:45;9.20;99.90
42803;DHT22;28447;48.682;9.022;2023-04-08T17:41:13;9.00;99.90
42803;DHT22;28447;48.682;9.022;2023-04-08T17:43:39;8.90;99.90
42803;DHT22;28447;48.682;9.022;2023-04-08T17:46:05;8.80;99.90
42803;DHT22;28447;48.682;9.022;2023-04-08T17:48:31;8.70;99.90
42803;DHT22;28447;48.682;9.022;2023-04-08T17:51:01;8.70;99.90
42803;DHT22;28447;48.682;9.022;2023-04-08T17:53:28;8.50;99.90
42803;DHT22;28447;48.682;9.022;2023-04-08T17:55:53;8.30;99.90
42803;DHT22;28447;48.682;9.022;2023-04-08T17:58:20;8.40;99.90
42803;DHT22;28447;48.682;9.022;2023-04-08T18:00:47;8.40;99.90
42803;DHT22;28447;48.682;9.022;2023-04-08T18:03:13;8.30;99.90
42803;DHT22;28447;48.682;9.022;2023-04-08T18:05:40;8.20;99.90
42803;DHT22;28447;48.682;9.022;2023-04-08T18:08:05;8.30;99.90
42803;DHT22;28447;48.682;9.022;2023-04-08T18:10:31;8.20;99.90
42803;DHT22;28447;48.682;9.022;2023-04-08T18:12:57;8.20;99.90
42803;DHT22;28447;48.682;9.022;2023-04-08T18:15:23;8.20;99.90
42803;DHT22;28447;48.682;9.022;2023-04-08T18:17:48;8.10;99.90
42803;DHT22;28447;48.682;9.022;2023-04-08T18:20:14;8.10;99.90
42803;DHT22;28447;48.682;9.022;2023-04-08T18:22:40;8.00;99.90
42803;DHT22;28447;48.682;9.022;2023-04-08T18:25:06;8.10;99.90
42803;DHT22;28447;48.682;9.022;2023-04-08T18:27:32;8.10;99.90
42803;DHT22;28447;48.682;9.022;2023-04-08T18:29:58;8.10;99.90
42803;DHT22;28447;48.682;9.022;2023-04-08T18:32:23;8.10;99.90
42803;DHT22;28447;48.682;9.022;2023-04-08T18:34:50;8.10;99.90
42803;DHT22;28447;48.682;9.022;2023-04-08T18:37:17;8.00;99.90
42803;DHT22;28447;48.682;9.022;2023-04-08T18:39:44;8.00;99.90
42803;DHT22;28447;48.682;9.022;2023-04-08T18:42:10;8.00;99.90
42803;DHT22;28447;48.682;9.022;2023-04-08T18:44:36;8.00;99.90
42803;DHT22;28447;48.682;9.022;2023-04-08T18:47:02;7.90;99.90
42803;DHT22;28447;48.682;9.022;2023-04-08T18:49:28;7.90;99.90
42803;DHT22;28447;48.682;9.022;2023-04-08T18:51:54;7.90;99.90
42803;DHT22;28447;48.682;9.022;2023-04-08T18:54:20;7.80;99.90
42803;DHT22;28447;48.682;9.022;2023-04-08T18:56:47;7.80;99.90
42803;DHT22;28447;48.682;9.022;2023-04-08T18:59:14;7.80;99.90
42803;DHT22;28447;48.682;9.022;2023-04-08T19:01:41;7.80;99.90
42803;DHT22;28447;48.682;9.022;2023-04-08T19:04:09;7.80;99.90
42803;DHT22;28447;48.682;9.022;2023-04-08T19:06:35;7.80;99.90
42803;DHT22;28447;48.682;9.022;2023-04-08T19:09:02;7.80;99.90
42803;DHT22;28447;48.682;9.022;2023-04-08T19:11:28;7.80;99.90
42803;DHT22;28447;48.682;9.022;2023-04-08T19:13:57;7.90;99.90
42803;DHT22;28447;48.682;9.022;2023-04-08T19:16:23;7.80;99.90
42803;DHT22;28447;48.682;9.022;2023-04-08T19:18:48;7.80;99.90
42803;DHT22;28447;48.682;9.022;2023-04-08T19:21:14;7.90;99.90
42803;DHT22;28447;48.682;9.022;2023-04-08T19:23:40;7.80;99.90
42803;DHT22;28447;48.682;9.022;2023-04-08T19:26:06;7.80;99.90
42803;DHT22;28447;48.682;9.022;2023-04-08T19:28:33;7.80;99.90
42803;DHT22;28447;48.682;9.022;2023-04-08T19:30:59;7.90;99.90
42803;DHT22;28447;48.682;9.022;2023-04-08T19:33:25;7.90;99.90
42803;DHT22;28447;48.682;9.022;2023-04-08T19:35:54;7.80;99.90
42803;DHT22;28447;48.682;9.022;2023-04-08T19:38:20;7.80;99.90
42803;DHT22;28447;48.682;9.022;2023-04-08T19:40:45;7.80;99.90
42803;DHT22;28447;48.682;9.022;2023-04-08T19:43:13;7.80;99.90
42803;DHT22;28447;48.682;9.022;2023-04-08T19:45:39;7.80;99.90
42803;DHT22;28447;48.682;9.022;2023-04-08T19:48:04;7.80;99.90
42803;DHT22;28447;48.682;9.022;2023-04-08T19:50:32;7.80;99.90
42803;DHT22;28447;48.682;9.022;2023-04-08T19:52:57;7.80;99.90
42803;DHT22;28447;48.682;9.022;2023-04-08T19:55:23;7.70;99.90
42803;DHT22;28447;48.682;9.022;2023-04-08T19:57:49;7.80;99.90
42803;DHT22;28447;48.682;9.022;2023-04-08T20:00:16;7.80;99.90
42803;DHT22;28447;48.682;9.022;2023-04-08T20:02:42;7.80;99.90